La rose des vents
Donnes mto: Semaine 26/02/07 - 04/03/07 (S 9)
Date Horaire Temp. E. Hum. E. P.atmo. Pluie Vent 1mn Direction Ensoleilleme Ev.Tr. Solaire P. de rose Temp au vent Rafales
26/02/2007 00:00 9,5 C 61 % 1004,9 hPa 0,0 l/m 22,6 km/h (4 Bft) O-SO 0,00 h 0,127 mm 0 W/m 2,4 C 6,5 C 28,2 km/h (4 Bft)
26/02/2007 01:00 9,8 C 58 % 1004,4 hPa 0,0 l/m 22,8 km/h (4 Bft) O 0,00 h 0,102 mm 0 W/m 2,1 C 6,9 C 31,2 km/h (5 Bft)
26/02/2007 02:00 11,3 C 48 % 1003,6 hPa 0,0 l/m 21,4 km/h (4 Bft) O-NO 0,00 h 0,102 mm 0 W/m 0,5 C 11,0 C 30,0 km/h (5 Bft)
26/02/2007 03:00 12,1 C 41 % 1003,1 hPa 0,0 l/m 14,4 km/h (3 Bft) O-NO 0,00 h 0,127 mm 0 W/m -0,8 C 12,1 C 21,0 km/h (4 Bft)
26/02/2007 04:00 9,9 C 52 % 1003,4 hPa 0,0 l/m 4,4 km/h (1 Bft) E 0,00 h 0,127 mm 0 W/m 0,5 C 9,6 C 6,7 km/h (2 Bft)
26/02/2007 05:00 8,7 C 57 % 1004,0 hPa 0,0 l/m 6,2 km/h (2 Bft) S 0,00 h 0,051 mm 0 W/m 0,6 C 7,9 C 8,0 km/h (2 Bft)
26/02/2007 06:00 8,1 C 57 % 1004,6 hPa 0,0 l/m 1,6 km/h (1 Bft) N-NO 0,00 h 0,051 mm 0 W/m 0,2 C 8,1 C 2,8 km/h (1 Bft)
26/02/2007 07:00 8,3 C 57 % 1005,1 hPa 0,0 l/m 4,0 km/h (1 Bft) SO 0,55 h 0,025 mm 39 W/m 0,3 C 7,9 C 5,2 km/h (1 Bft)
26/02/2007 08:00 10,2 C 52 % 1005,7 hPa 0,0 l/m 5,5 km/h (1 Bft) S-SO 1,00 h 0,051 mm 183 W/m 0,7 C 10,1 C 7,0 km/h (2 Bft)
26/02/2007 09:00 12,6 C 46 % 1006,6 hPa 0,0 l/m 2,0 km/h (1 Bft) S 1,00 h 0,127 mm 347 W/m 1,2 C 12,6 C 3,9 km/h (1 Bft)
26/02/2007 10:00 14,4 C 39 % 1007,2 hPa 0,0 l/m 5,5 km/h (1 Bft) S 1,00 h 0,203 mm 483 W/m 0,5 C 14,4 C 8,8 km/h (2 Bft)
26/02/2007 11:00 15,8 C 38 % 1007,9 hPa 0,0 l/m 5,4 km/h (1 Bft) E 1,00 h 0,305 mm 574 W/m 1,4 C 15,8 C 8,9 km/h (2 Bft)
26/02/2007 12:00 15,7 C 49 % 1008,0 hPa 0,0 l/m 8,3 km/h (2 Bft) E 1,00 h 0,356 mm 610 W/m 5,1 C 15,7 C 12,6 km/h (3 Bft)
26/02/2007 13:00 15,5 C 58 % 1007,3 hPa 0,0 l/m 6,1 km/h (2 Bft) E 1,00 h 0,381 mm 593 W/m 7,4 C 15,5 C 9,8 km/h (2 Bft)
26/02/2007 14:00 16,2 C 53 % 1006,6 hPa 0,0 l/m 4,7 km/h (1 Bft) E 1,00 h 0,356 mm 509 W/m 6,5 C 16,2 C 8,6 km/h (2 Bft)
26/02/2007 15:00 15,2 C 49 % 1006,3 hPa 0,0 l/m 2,5 km/h (1 Bft) E 0,67 h 0,305 mm 280 W/m 4,6 C 15,2 C 4,5 km/h (1 Bft)
26/02/2007 16:00 14,0 C 59 % 1006,5 hPa 0,0 l/m 1,7 km/h (1 Bft) E-NE 0,12 h 0,178 mm 131 W/m 6,0 C 14,0 C 3,0 km/h (1 Bft)
26/02/2007 17:00 13,8 C 50 % 1006,4 hPa 0,0 l/m 6,4 km/h (2 Bft) SE 0,00 h 0,076 mm 33 W/m 3,3 C 13,8 C 9,4 km/h (2 Bft)
26/02/2007 18:00 11,7 C 73 % 1006,9 hPa 0,0 l/m 4,8 km/h (1 Bft) S-SE 0,00 h 0,076 mm 7 W/m 7,0 C 11,7 C 6,9 km/h (2 Bft)
26/02/2007 19:00 11,2 C 72 % 1007,1 hPa 0,0 l/m 3,4 km/h (1 Bft) O 0,00 h 0,025 mm 0 W/m 6,4 C 11,2 C 5,0 km/h (1 Bft)
26/02/2007 20:00 12,6 C 47 % 1007,4 hPa 0,0 l/m 5,2 km/h (1 Bft) S 0,00 h 0,025 mm 0 W/m 1,5 C 12,6 C 7,1 km/h (2 Bft)
26/02/2007 21:00 11,7 C 48 % 1007,9 hPa 0,0 l/m 4,8 km/h (1 Bft) NO 0,00 h 0,076 mm 0 W/m 0,9 C 11,7 C 6,5 km/h (2 Bft)
26/02/2007 22:00 11,7 C 37 % 1008,9 hPa 0,0 l/m 4,9 km/h (1 Bft) NE 0,00 h 0,051 mm 0 W/m -2,7 C 11,7 C 7,4 km/h (2 Bft)
26/02/2007 23:00 11,6 C 33 % 1009,8 hPa 0,0 l/m 4,4 km/h (1 Bft) NO 0,00 h 0,076 mm 0 W/m -4,3 C 11,6 C 6,8 km/h (2 Bft)
27/02/2007 00:00 11,3 C 37 % 1010,6 hPa 0,0 l/m 4,3 km/h (1 Bft) S-SE 0,00 h 0,076 mm 0 W/m -3,0 C 11,3 C 6,3 km/h (2 Bft)
27/02/2007 01:00 10,5 C 46 % 1011,2 hPa 0,0 l/m 3,8 km/h (1 Bft) S-SE 0,00 h 0,076 mm 0 W/m -0,6 C 10,5 C 5,4 km/h (1 Bft)
27/02/2007 02:00 9,9 C 45 % 1011,5 hPa 0,0 l/m 2,3 km/h (1 Bft) O-SO 0,00 h 0,051 mm 0 W/m -1,6 C 9,9 C 3,7 km/h (1 Bft)
27/02/2007 03:00 9,2 C 44 % 1011,4 hPa 0,0 l/m 1,1 km/h (1 Bft) NO 0,00 h 0,051 mm 0 W/m -2,4 C 9,1 C 2,0 km/h (1 Bft)
27/02/2007 04:00 8,9 C 42 % 1011,4 hPa 0,0 l/m 1,3 km/h (1 Bft) SO 0,00 h 0,051 mm 0 W/m -3,3 C 8,8 C 2,4 km/h (1 Bft)
27/02/2007 05:00 8,7 C 40 % 1012,0 hPa 0,0 l/m 4,9 km/h (1 Bft) S-SO 0,00 h 0,051 mm 0 W/m -4,1 C 8,1 C 6,0 km/h (2 Bft)
27/02/2007 06:00 8,3 C 39 % 1012,5 hPa 0,0 l/m 2,7 km/h (1 Bft) SO 0,00 h 0,051 mm 0 W/m -5,0 C 8,1 C 3,6 km/h (1 Bft)
27/02/2007 07:00 8,3 C 38 % 1013,3 hPa 0,0 l/m 3,3 km/h (1 Bft) NO 0,57 h 0,025 mm 40 W/m -5,1 C 8,1 C 5,0 km/h (1 Bft)
27/02/2007 08:00 11,0 C 35 % 1013,9 hPa 0,0 l/m 1,0 km/h (0 Bft) NO 1,00 h 0,051 mm 189 W/m -3,9 C 11,0 C 2,1 km/h (1 Bft)
27/02/2007 09:00 13,6 C 32 % 1014,5 hPa 0,0 l/m 1,3 km/h (1 Bft) S-SE 1,00 h 0,102 mm 350 W/m -2,8 C 13,6 C 2,6 km/h (1 Bft)
27/02/2007 10:00 14,9 C 34 % 1015,0 hPa 0,0 l/m 6,1 km/h (2 Bft) S 1,00 h 0,203 mm 486 W/m -0,9 C 14,9 C 9,2 km/h (2 Bft)
27/02/2007 11:00 17,0 C 29 % 1014,9 hPa 0,0 l/m 7,3 km/h (2 Bft) S 1,00 h 0,305 mm 581 W/m -1,0 C 17,0 C 11,1 km/h (2 Bft)
27/02/2007 12:00 17,7 C 27 % 1014,6 hPa 0,0 l/m 17,1 km/h (3 Bft) SO 1,00 h 0,381 mm 616 W/m -1,3 C 17,7 C 23,3 km/h (4 Bft)
27/02/2007 13:00 18,0 C 26 % 1014,0 hPa 0,0 l/m 20,6 km/h (4 Bft) S-SO 1,00 h 0,508 mm 590 W/m -1,6 C 18,0 C 27,8 km/h (4 Bft)
27/02/2007 14:00 18,3 C 27 % 1013,1 hPa 0,0 l/m 16,8 km/h (3 Bft) S 1,00 h 0,533 mm 517 W/m -1,1 C 18,3 C 22,8 km/h (4 Bft)
27/02/2007 15:00 18,0 C 30 % 1012,8 hPa 0,0 l/m 16,3 km/h (3 Bft) S 1,00 h 0,457 mm 385 W/m -0,0 C 18,0 C 21,8 km/h (4 Bft)
27/02/2007 16:00 16,8 C 46 % 1012,7 hPa 0,0 l/m 9,4 km/h (2 Bft) S 1,00 h 0,381 mm 241 W/m 5,0 C 16,8 C 12,8 km/h (3 Bft)
27/02/2007 17:00 15,5 C 55 % 1012,6 hPa 0,0 l/m 2,3 km/h (1 Bft) S 1,00 h 0,203 mm 98 W/m 6,6 C 15,5 C 3,9 km/h (1 Bft)
27/02/2007 18:00 12,9 C 67 % 1013,0 hPa 0,0 l/m 6,0 km/h (2 Bft) NE 0,13 h 0,076 mm 11 W/m 6,9 C 12,9 C 8,8 km/h (2 Bft)
27/02/2007 19:00 11,7 C 69 % 1012,7 hPa 0,0 l/m 2,2 km/h (1 Bft) N-NE 0,00 h 0,025 mm 0 W/m 6,2 C 11,7 C 4,1 km/h (1 Bft)
27/02/2007 20:00 11,9 C 64 % 1012,1 hPa 0,0 l/m 3,3 km/h (1 Bft) S-SE 0,00 h 0,025 mm 0 W/m 5,3 C 11,9 C 4,7 km/h (1 Bft)
27/02/2007 21:00 12,6 C 53 % 1011,8 hPa 0,0 l/m 6,4 km/h (2 Bft) O 0,00 h 0,051 mm 0 W/m 3,1 C 12,6 C 8,6 km/h (2 Bft)
27/02/2007 22:00 13,8 C 41 % 1011,6 hPa 0,0 l/m 4,8 km/h (1 Bft) O 0,00 h 0,076 mm 0 W/m 0,6 C 13,8 C 6,9 km/h (2 Bft)
27/02/2007 23:00 13,3 C 42 % 1011,8 hPa 0,0 l/m 5,1 km/h (1 Bft) O-NO 0,00 h 0,076 mm 0 W/m 0,6 C 13,3 C 7,1 km/h (2 Bft)
28/02/2007 00:00 13,2 C 48 % 1011,5 hPa 0,0 l/m 3,7 km/h (1 Bft) O-NO 0,00 h 0,076 mm 0 W/m 1,9 C 13,2 C 5,4 km/h (1 Bft)
28/02/2007 01:00 11,4 C 67 % 1011,6 hPa 0,0 l/m 3,1 km/h (1 Bft) S-SE 0,00 h 0,051 mm 0 W/m 5,5 C 11,4 C 4,5 km/h (1 Bft)
28/02/2007 02:00 10,4 C 79 % 1011,3 hPa 0,0 l/m 4,3 km/h (1 Bft) SO 0,00 h 0,025 mm 0 W/m 7,0 C 10,4 C 5,5 km/h (1 Bft)
28/02/2007 03:00 10,2 C 80 % 1010,6 hPa 0,0 l/m 3,7 km/h (1 Bft) O-NO 0,00 h 0,025 mm 0 W/m 6,9 C 10,2 C 5,5 km/h (1 Bft)
28/02/2007 04:00 9,6 C 81 % 1010,1 hPa 0,0 l/m 4,4 km/h (1 Bft) S-SO 0,00 h 0,025 mm 0 W/m 6,6 C 9,3 C 6,3 km/h (2 Bft)
28/02/2007 05:00 9,4 C 83 % 1009,7 hPa 0,0 l/m 0,9 km/h (0 Bft) NO 0,00 h 0,025 mm 0 W/m 6,8 C 9,4 C 1,8 km/h (1 Bft)
28/02/2007 06:00 9,8 C 86 % 1009,0 hPa 0,0 l/m 0,4 km/h (0 Bft) N 0,00 h 0,025 mm 0 W/m 7,6 C 9,8 C 1,0 km/h (0 Bft)
28/02/2007 07:00 10,8 C 75 % 1008,6 hPa 0,0 l/m 3,9 km/h (1 Bft) E-SE 0,00 h 0,000 mm 24 W/m 6,5 C 10,8 C 6,8 km/h (2 Bft)
28/02/2007 08:00 14,0 C 57 % 1008,2 hPa 0,0 l/m 17,3 km/h (3 Bft) O-SO 0,47 h 0,025 mm 144 W/m 5,6 C 14,0 C 23,4 km/h (4 Bft)
28/02/2007 09:00 17,4 C 48 % 1008,0 hPa 0,0 l/m 22,4 km/h (4 Bft) SO 0,15 h 0,178 mm 174 W/m 6,4 C 17,4 C 29,3 km/h (5 Bft)
28/02/2007 10:00 18,4 C 47 % 1008,3 hPa 0,0 l/m 23,0 km/h (4 Bft) SO 0,23 h 0,254 mm 227 W/m 6,9 C 18,4 C 30,3 km/h (5 Bft)
28/02/2007 11:00 18,7 C 49 % 1007,8 hPa 0,0 l/m 25,3 km/h (4 Bft) S-SO 0,00 h 0,305 mm 236 W/m 7,6 C 18,7 C 33,0 km/h (5 Bft)
28/02/2007 12:00 19,5 C 45 % 1007,7 hPa 0,0 l/m 24,9 km/h (4 Bft) SO 0,33 h 0,305 mm 333 W/m 7,3 C 19,5 C 32,4 km/h (5 Bft)
28/02/2007 13:00 19,2 C 49 % 1006,9 hPa 0,0 l/m 23,2 km/h (4 Bft) S-SO 0,32 h 0,381 mm 303 W/m 8,3 C 19,2 C 30,0 km/h (5 Bft)
28/02/2007 14:00 19,8 C 44 % 1006,0 hPa 0,0 l/m 23,3 km/h (4 Bft) S-SO 0,47 h 0,330 mm 330 W/m 7,1 C 19,8 C 30,6 km/h (5 Bft)
28/02/2007 15:00 20,2 C 42 % 1005,4 hPa 0,0 l/m 29,0 km/h (5 Bft) SO 1,00 h 0,381 mm 414 W/m 6,8 C 20,2 C 37,4 km/h (5 Bft)
28/02/2007 16:00 21,2 C 30 % 1005,3 hPa 0,0 l/m 25,2 km/h (4 Bft) O-SO 1,00 h 0,483 mm 259 W/m 2,6 C 21,2 C 33,7 km/h (5 Bft)
28/02/2007 17:00 19,7 C 31 % 1005,6 hPa 0,0 l/m 24,6 km/h (4 Bft) O-SO 0,42 h 0,406 mm 77 W/m 2,0 C 19,7 C 31,5 km/h (5 Bft)
28/02/2007 18:00 17,7 C 39 % 1005,9 hPa 0,0 l/m 26,4 km/h (4 Bft) SO 0,00 h 0,279 mm 8 W/m 3,7 C 17,7 C 32,9 km/h (5 Bft)
28/02/2007 19:00 17,0 C 40 % 1006,3 hPa 0,0 l/m 15,0 km/h (3 Bft) O-SO 0,00 h 0,229 mm 0 W/m 3,1 C 17,0 C 21,1 km/h (4 Bft)
28/02/2007 20:00 15,4 C 48 % 1006,7 hPa 0,0 l/m 13,9 km/h (3 Bft) O-SO 0,00 h 0,127 mm 0 W/m 4,3 C 15,4 C 20,2 km/h (4 Bft)
28/02/2007 21:00 16,0 C 39 % 1006,8 hPa 0,0 l/m 13,0 km/h (3 Bft) O 0,00 h 0,127 mm 0 W/m 2,1 C 16,0 C 19,5 km/h (3 Bft)
28/02/2007 22:00 13,4 C 68 % 1007,1 hPa 0,0 l/m 4,6 km/h (1 Bft) E 0,00 h 0,127 mm 0 W/m 7,1 C 13,4 C 6,7 km/h (2 Bft)
28/02/2007 23:00 11,0 C 89 % 1007,3 hPa 0,0 l/m 3,6 km/h (1 Bft) E 0,00 h 0,051 mm 0 W/m 9,3 C 11,0 C 5,2 km/h (1 Bft)
01/03/2007 00:00 10,3 C 92 % 1007,2 hPa 0,0 l/m 1,3 km/h (1 Bft) NE 0,00 h 0,000 mm 0 W/m 9,0 C 10,3 C 2,7 km/h (1 Bft)
01/03/2007 01:00 10,2 C 93 % 1007,3 hPa 0,0 l/m 1,0 km/h (0 Bft) N-NE 0,00 h 0,000 mm 0 W/m 9,1 C 10,2 C 2,2 km/h (1 Bft)
01/03/2007 02:00 9,8 C 93 % 1007,2 hPa 0,0 l/m 1,4 km/h (1 Bft) NO 0,00 h 0,000 mm 0 W/m 8,8 C 9,8 C 2,7 km/h (1 Bft)
01/03/2007 03:00 9,7 C 94 % 1006,7 hPa 0,0 l/m 0,7 km/h (0 Bft) NO 0,00 h 0,000 mm 0 W/m 8,8 C 9,7 C 1,3 km/h (1 Bft)
01/03/2007 04:00 8,7 C 93 % 1005,9 hPa 0,0 l/m 6,1 km/h (2 Bft) O-NO 0,00 h 0,000 mm 0 W/m 7,6 C 7,9 C 8,3 km/h (2 Bft)
01/03/2007 05:00 9,1 C 78 % 1005,6 hPa 0,0 l/m 5,7 km/h (1 Bft) NO 0,00 h 0,025 mm 0 W/m 5,3 C 8,5 C 8,0 km/h (2 Bft)
01/03/2007 06:00 10,1 C 61 % 1005,3 hPa 0,0 l/m 6,8 km/h (2 Bft) O-NO 0,00 h 0,025 mm 0 W/m 2,8 C 9,8 C 9,8 km/h (2 Bft)
01/03/2007 07:00 10,7 C 56 % 1005,7 hPa 0,0 l/m 5,6 km/h (1 Bft) NO 0,00 h 0,025 mm 19 W/m 2,2 C 10,7 C 8,0 km/h (2 Bft)
01/03/2007 08:00 12,0 C 54 % 1006,2 hPa 0,0 l/m 3,9 km/h (1 Bft) NO 0,87 h 0,051 mm 177 W/m 3,0 C 12,0 C 6,0 km/h (2 Bft)
01/03/2007 09:00 12,3 C 67 % 1006,5 hPa 0,0 l/m 3,8 km/h (1 Bft) E-NE 0,52 h 0,102 mm 240 W/m 6,3 C 12,3 C 6,0 km/h (2 Bft)
01/03/2007 10:00 13,2 C 71 % 1006,8 hPa 0,0 l/m 4,9 km/h (1 Bft) E 0,27 h 0,152 mm 244 W/m 8,1 C 13,2 C 7,5 km/h (2 Bft)
01/03/2007 11:00 14,4 C 68 % 1006,9 hPa 0,0 l/m 5,6 km/h (1 Bft) E-NE 0,55 h 0,152 mm 420 W/m 8,6 C 14,4 C 8,7 km/h (2 Bft)
01/03/2007 12:00 15,1 C 62 % 1006,2 hPa 0,0 l/m 4,6 km/h (1 Bft) E 0,18 h 0,254 mm 296 W/m 8,0 C 15,1 C 7,7 km/h (2 Bft)
01/03/2007 13:00 17,5 C 33 % 1005,6 hPa 0,0 l/m 24,9 km/h (4 Bft) S-SO 0,07 h 0,178 mm 256 W/m 1,2 C 17,5 C 33,3 km/h (5 Bft)
01/03/2007 14:00 17,6 C 33 % 1005,4 hPa 0,0 l/m 23,3 km/h (4 Bft) S-SO 0,15 h 0,356 mm 264 W/m 1,1 C 17,6 C 30,3 km/h (5 Bft)
01/03/2007 15:00 18,3 C 35 % 1005,0 hPa 0,0 l/m 21,0 km/h (4 Bft) SO 0,75 h 0,356 mm 342 W/m 2,5 C 18,3 C 27,4 km/h (4 Bft)
01/03/2007 16:00 18,4 C 37 % 1004,4 hPa 0,0 l/m 24,6 km/h (4 Bft) SO 0,38 h 0,381 mm 148 W/m 3,3 C 18,4 C 31,9 km/h (5 Bft)
01/03/2007 17:00 15,3 C 47 % 1004,4 hPa 0,0 l/m 35,5 km/h (5 Bft) S-SO 0,00 h 0,305 mm 33 W/m 4,2 C 15,3 C 45,6 km/h (6 Bft)
01/03/2007 18:00 14,8 C 52 % 1004,8 hPa 0,0 l/m 39,9 km/h (6 Bft) SO 0,00 h 0,254 mm 6 W/m 4,9 C 14,8 C 51,5 km/h (7 Bft)
01/03/2007 19:00 14,4 C 56 % 1005,5 hPa 0,0 l/m 36,1 km/h (5 Bft) S-SO 0,00 h 6,299 mm 0 W/m 5,6 C 14,4 C 45,6 km/h (6 Bft)
01/03/2007 20:00 13,9 C 56 % 1006,1 hPa 0,0 l/m 25,7 km/h (4 Bft) S-SO 0,00 h 0,178 mm 0 W/m 5,3 C 13,9 C 32,7 km/h (5 Bft)
01/03/2007 21:00 12,9 C 62 % 1006,5 hPa 0,0 l/m 17,4 km/h (3 Bft) S-SO 0,00 h 0,127 mm 0 W/m 5,8 C 12,9 C 22,1 km/h (4 Bft)
01/03/2007 22:00 13,6 C 60 % 1006,4 hPa 0,0 l/m 18,6 km/h (3 Bft) O-SO 0,00 h 0,102 mm 0 W/m 6,0 C 13,6 C 25,7 km/h (4 Bft)
01/03/2007 23:00 14,4 C 56 % 1005,8 hPa 0,0 l/m 18,9 km/h (3 Bft) O 0,00 h 0,102 mm 0 W/m 5,7 C 14,4 C 28,2 km/h (4 Bft)
02/03/2007 00:00 14,8 C 53 % 1005,5 hPa 0,0 l/m 26,1 km/h (4 Bft) O-SO 0,00 h 0,127 mm 0 W/m 5,2 C 14,8 C 35,9 km/h (5 Bft)
02/03/2007 01:00 14,8 C 51 % 1005,2 hPa 0,0 l/m 28,7 km/h (4 Bft) O-SO 0,00 h 0,152 mm 0 W/m 4,7 C 14,8 C 38,4 km/h (5 Bft)
02/03/2007 02:00 15,1 C 50 % 1005,2 hPa 0,0 l/m 20,5 km/h (4 Bft) O-SO 0,00 h 0,178 mm 0 W/m 4,8 C 15,1 C 28,0 km/h (4 Bft)
02/03/2007 03:00 14,4 C 54 % 1004,4 hPa 0,0 l/m 21,3 km/h (4 Bft) O-SO 0,00 h 0,127 mm 0 W/m 5,3 C 14,4 C 30,2 km/h (5 Bft)
02/03/2007 04:00 14,0 C 57 % 1004,2 hPa 0,0 l/m 21,9 km/h (4 Bft) O-SO 0,00 h 0,127 mm 0 W/m 5,6 C 14,0 C 30,4 km/h (5 Bft)
02/03/2007 05:00 13,9 C 58 % 1003,5 hPa 0,0 l/m 24,5 km/h (4 Bft) SO 0,00 h 0,127 mm 0 W/m 5,8 C 13,9 C 33,5 km/h (5 Bft)
02/03/2007 06:00 13,8 C 59 % 1003,1 hPa 0,0 l/m 29,3 km/h (5 Bft) O-SO 0,00 h 0,127 mm 0 W/m 6,0 C 13,8 C 38,9 km/h (6 Bft)
02/03/2007 07:00 13,9 C 60 % 1002,6 hPa 0,0 l/m 33,5 km/h (5 Bft) O-SO 0,52 h 0,152 mm 44 W/m 6,4 C 13,9 C 43,6 km/h (6 Bft)
02/03/2007 08:00 15,5 C 57 % 1003,5 hPa 0,0 l/m 23,8 km/h (4 Bft) O-SO 0,97 h 0,203 mm 195 W/m 7,1 C 15,5 C 32,3 km/h (5 Bft)
02/03/2007 09:00 17,2 C 52 % 1004,0 hPa 0,0 l/m 32,3 km/h (5 Bft) O-SO 0,98 h 0,254 mm 353 W/m 7,3 C 17,2 C 42,3 km/h (6 Bft)
02/03/2007 10:00 18,6 C 47 % 1003,5 hPa 0,0 l/m 36,0 km/h (5 Bft) O-SO 1,00 h 0,406 mm 500 W/m 7,1 C 18,6 C 47,7 km/h (6 Bft)
02/03/2007 11:00 19,3 C 46 % 1003,7 hPa 0,0 l/m 35,4 km/h (5 Bft) SO 1,00 h 0,533 mm 530 W/m 7,4 C 19,3 C 46,6 km/h (6 Bft)
02/03/2007 12:00 21,0 C 36 % 1003,8 hPa 0,0 l/m 28,6 km/h (4 Bft) SO 1,00 h 0,559 mm 599 W/m 4,8 C 21,0 C 39,1 km/h (6 Bft)
02/03/2007 13:00 23,7 C 22 % 1003,6 hPa 0,0 l/m 20,7 km/h (4 Bft) O-NO 1,00 h 0,610 mm 691 W/m 0,7 C 23,7 C 31,2 km/h (5 Bft)
02/03/2007 14:00 24,3 C 21 % 1003,5 hPa 0,0 l/m 20,4 km/h (4 Bft) O 1,00 h 0,660 mm 604 W/m 0,5 C 24,3 C 29,5 km/h (5 Bft)
02/03/2007 15:00 21,5 C 36 % 1004,4 hPa 0,0 l/m 15,4 km/h (3 Bft) E 1,00 h 0,635 mm 424 W/m 4,6 C 21,5 C 23,0 km/h (4 Bft)
02/03/2007 16:00 17,3 C 60 % 1005,0 hPa 0,0 l/m 9,5 km/h (2 Bft) E-SE 1,00 h 0,406 mm 264 W/m 9,6 C 17,3 C 13,6 km/h (3 Bft)
02/03/2007 17:00 16,0 C 63 % 1005,8 hPa 0,0 l/m 6,4 km/h (2 Bft) E-SE 0,88 h 0,203 mm 98 W/m 8,8 C 16,0 C 9,3 km/h (2 Bft)
02/03/2007 18:00 16,3 C 55 % 1006,3 hPa 0,0 l/m 5,0 km/h (1 Bft) N-NO 0,02 h 0,102 mm 11 W/m 6,5 C 16,3 C 8,0 km/h (2 Bft)
02/03/2007 19:00 14,2 C 65 % 1007,2 hPa 0,0 l/m 6,2 km/h (2 Bft) E 0,00 h 0,051 mm 0 W/m 7,5 C 14,2 C 8,8 km/h (2 Bft)
02/03/2007 20:00 13,0 C 75 % 1008,4 hPa 0,0 l/m 3,9 km/h (1 Bft) NE 0,00 h 0,051 mm 0 W/m 8,7 C 13,0 C 6,4 km/h (2 Bft)
02/03/2007 21:00 12,2 C 78 % 1009,2 hPa 0,0 l/m 3,3 km/h (1 Bft) E-NE 0,00 h 0,025 mm 0 W/m 8,4 C 12,2 C 5,0 km/h (1 Bft)
02/03/2007 22:00 12,3 C 74 % 1009,4 hPa 0,0 l/m 2,5 km/h (1 Bft) E-NE 0,00 h 0,025 mm 0 W/m 7,7 C 12,3 C 4,0 km/h (1 Bft)
02/03/2007 23:00 12,6 C 71 % 1009,5 hPa 0,0 l/m 5,1 km/h (1 Bft) N-NE 0,00 h 0,025 mm 0 W/m 7,5 C 12,6 C 8,4 km/h (2 Bft)
03/03/2007 00:00 14,1 C 61 % 1009,0 hPa 0,0 l/m 6,2 km/h (2 Bft) SE 0,00 h 0,051 mm 0 W/m 6,8 C 14,1 C 10,8 km/h (2 Bft)
03/03/2007 01:00 16,0 C 53 % 1008,8 hPa 0,0 l/m 24,0 km/h (4 Bft) O-SO 0,00 h 0,051 mm 0 W/m 6,3 C 16,0 C 32,1 km/h (5 Bft)
03/03/2007 02:00 16,8 C 48 % 1008,4 hPa 0,0 l/m 23,8 km/h (4 Bft) O-SO 0,00 h 0,152 mm 0 W/m 5,6 C 16,8 C 30,7 km/h (5 Bft)
03/03/2007 03:00 17,0 C 46 % 1008,0 hPa 0,0 l/m 27,4 km/h (4 Bft) SO 0,00 h 0,178 mm 0 W/m 5,4 C 17,0 C 35,0 km/h (5 Bft)
03/03/2007 04:00 17,3 C 47 % 1007,9 hPa 0,0 l/m 29,0 km/h (5 Bft) SO 0,00 h 0,203 mm 0 W/m 5,9 C 17,3 C 36,6 km/h (5 Bft)
03/03/2007 05:00 17,0 C 50 % 1008,1 hPa 0,0 l/m 23,4 km/h (4 Bft) O-SO 0,00 h 0,203 mm 0 W/m 6,6 C 17,0 C 30,3 km/h (5 Bft)
03/03/2007 06:00 16,8 C 55 % 1008,1 hPa 0,0 l/m 30,5 km/h (5 Bft) O-SO 0,00 h 0,152 mm 0 W/m 7,6 C 16,8 C 39,5 km/h (6 Bft)
03/03/2007 07:00 16,6 C 58 % 1008,2 hPa 0,0 l/m 31,9 km/h (5 Bft) O-SO 0,03 h 0,203 mm 36 W/m 8,4 C 16,6 C 43,0 km/h (6 Bft)
03/03/2007 08:00 17,0 C 59 % 1008,6 hPa 0,0 l/m 35,9 km/h (5 Bft) SO 0,62 h 0,203 mm 155 W/m 8,8 C 17,0 C 46,4 km/h (6 Bft)
03/03/2007 09:00 18,2 C 55 % 1008,7 hPa 0,0 l/m 34,4 km/h (5 Bft) SO 1,00 h 0,279 mm 289 W/m 8,9 C 18,2 C 46,1 km/h (6 Bft)
03/03/2007 10:00 19,1 C 54 % 1008,6 hPa 0,0 l/m 28,3 km/h (4 Bft) SO 0,98 h 0,381 mm 353 W/m 9,6 C 19,1 C 36,6 km/h (5 Bft)
03/03/2007 11:00 20,2 C 50 % 1008,4 hPa 0,0 l/m 24,0 km/h (4 Bft) SO 0,85 h 0,381 mm 410 W/m 9,5 C 20,2 C 31,4 km/h (5 Bft)
03/03/2007 12:00 21,2 C 46 % 1007,3 hPa 0,0 l/m 32,5 km/h (5 Bft) O-SO 1,00 h 0,406 mm 495 W/m 9,0 C 21,2 C 42,6 km/h (6 Bft)
03/03/2007 13:00 21,1 C 44 % 1006,7 hPa 0,0 l/m 32,1 km/h (5 Bft) O-SO 0,42 h 0,559 mm 340 W/m 8,3 C 21,1 C 42,9 km/h (6 Bft)
03/03/2007 14:00 21,5 C 38 % 1006,9 hPa 0,0 l/m 25,4 km/h (4 Bft) O-SO 0,12 h 0,457 mm 258 W/m 6,6 C 21,5 C 36,1 km/h (5 Bft)
03/03/2007 15:00 20,9 C 40 % 1007,1 hPa 0,0 l/m 24,2 km/h (4 Bft) O-SO 0,05 h 0,381 mm 190 W/m 6,9 C 20,9 C 32,1 km/h (5 Bft)
03/03/2007 16:00 20,5 C 43 % 1007,6 hPa 0,0 l/m 22,4 km/h (4 Bft) SO 0,40 h 0,330 mm 172 W/m 7,5 C 20,5 C 29,3 km/h (5 Bft)
03/03/2007 17:00 19,9 C 47 % 1008,9 hPa 0,0 l/m 18,1 km/h (3 Bft) SO 0,68 h 0,279 mm 106 W/m 8,1 C 19,9 C 25,5 km/h (4 Bft)
03/03/2007 18:00 18,5 C 50 % 1009,9 hPa 0,0 l/m 23,9 km/h (4 Bft) SO 0,00 h 0,203 mm 12 W/m 7,8 C 18,5 C 30,2 km/h (5 Bft)
03/03/2007 19:00 18,1 C 50 % 1010,5 hPa 0,0 l/m 29,5 km/h (5 Bft) SO 0,00 h 0,178 mm 0 W/m 7,6 C 18,1 C 38,3 km/h (5 Bft)
03/03/2007 20:00 17,7 C 50 % 1010,8 hPa 0,0 l/m 23,7 km/h (4 Bft) SO 0,00 h 0,203 mm 0 W/m 7,2 C 17,7 C 30,0 km/h (5 Bft)
03/03/2007 21:00 17,6 C 48 % 1011,2 hPa 0,0 l/m 27,8 km/h (4 Bft) SO 0,00 h 0,152 mm 0 W/m 6,5 C 17,6 C 35,0 km/h (5 Bft)
03/03/2007 22:00 17,2 C 48 % 1011,7 hPa 0,0 l/m 21,0 km/h (4 Bft) O-SO 0,00 h 0,203 mm 0 W/m 6,0 C 17,2 C 28,1 km/h (4 Bft)
03/03/2007 23:00 15,4 C 63 % 1012,1 hPa 0,0 l/m 5,8 km/h (2 Bft) E 0,00 h 0,152 mm 0 W/m 8,1 C 15,4 C 9,5 km/h (2 Bft)
04/03/2007 00:00 13,1 C 77 % 1012,4 hPa 0,0 l/m 3,4 km/h (1 Bft) E-SE 0,00 h 0,051 mm 0 W/m 9,2 C 13,1 C 5,3 km/h (1 Bft)
04/03/2007 01:00 11,9 C 81 % 1012,6 hPa 0,0 l/m 3,3 km/h (1 Bft) E-SE 0,00 h 0,025 mm 0 W/m 8,8 C 11,9 C 4,8 km/h (1 Bft)
04/03/2007 02:00 11,5 C 86 % 1013,1 hPa 0,0 l/m 2,8 km/h (1 Bft) S-SE 0,00 h 0,025 mm 0 W/m 9,3 C 11,5 C 4,1 km/h (1 Bft)
04/03/2007 03:00 11,3 C 90 % 1013,5 hPa 0,0 l/m 3,0 km/h (1 Bft) S-SE 0,00 h 0,025 mm 0 W/m 9,7 C 11,3 C 4,6 km/h (1 Bft)
04/03/2007 04:00 11,1 C 92 % 1013,9 hPa 0,0 l/m 1,5 km/h (1 Bft) E-SE 0,00 h 0,025 mm 0 W/m 9,8 C 11,1 C 3,2 km/h (1 Bft)
04/03/2007 05:00 10,8 C 93 % 1014,7 hPa 0,0 l/m 4,3 km/h (1 Bft) O 0,00 h 0,000 mm 0 W/m 9,6 C 10,8 C 6,0 km/h (2 Bft)
04/03/2007 06:00 10,7 C 94 % 1015,3 hPa 0,0 l/m 3,8 km/h (1 Bft) O-SO 0,00 h 0,025 mm 5 W/m 9,8 C 10,7 C 5,2 km/h (1 Bft)
04/03/2007 07:00 10,6 C 95 % 1016,0 hPa 0,0 l/m 0,7 km/h (0 Bft) O-SO 0,13 h 0,000 mm 27 W/m 9,8 C 10,6 C 1,7 km/h (1 Bft)
04/03/2007 08:00 11,1 C 95 % 1016,8 hPa 0,0 l/m 0,3 km/h (0 Bft) O-SO 0,05 h 0,025 mm 85 W/m 10,4 C 11,1 C 1,0 km/h (0 Bft)
04/03/2007 09:00 12,2 C 93 % 1017,5 hPa 0,0 l/m 0,2 km/h (0 Bft) S 0,13 h 0,051 mm 173 W/m 11,1 C 12,2 C 0,7 km/h (0 Bft)
04/03/2007 10:00 15,0 C 77 % 1017,7 hPa 0,0 l/m 2,2 km/h (1 Bft) SE 1,00 h 0,076 mm 509 W/m 11,1 C 15,0 C 4,3 km/h (1 Bft)
04/03/2007 11:00 17,4 C 63 % 1018,2 hPa 0,0 l/m 4,6 km/h (1 Bft) E 1,00 h 0,279 mm 603 W/m 10,2 C 17,4 C 7,9 km/h (2 Bft)
04/03/2007 12:00 17,3 C 70 % 1018,4 hPa 0,0 l/m 8,7 km/h (2 Bft) E 1,00 h 0,356 mm 627 W/m 11,6 C 17,3 C 13,4 km/h (3 Bft)
04/03/2007 13:00 16,2 C 75 % 1018,4 hPa 0,0 l/m 5,6 km/h (1 Bft) E-SE 1,00 h 0,381 mm 477 W/m 11,8 C 16,2 C 9,1 km/h (2 Bft)
04/03/2007 14:00 16,7 C 74 % 1018,2 hPa 0,0 l/m 5,6 km/h (1 Bft) E-SE 1,00 h 0,279 mm 568 W/m 12,1 C 16,7 C 9,4 km/h (2 Bft)
04/03/2007 15:00 16,5 C 75 % 1017,8 hPa 0,0 l/m 4,2 km/h (1 Bft) E-SE 0,95 h 0,330 mm 396 W/m 12,0 C 16,5 C 6,9 km/h (2 Bft)
04/03/2007 16:00 16,0 C 76 % 1017,6 hPa 0,0 l/m 2,5 km/h (1 Bft) E-SE 0,85 h 0,229 mm 243 W/m 11,8 C 16,0 C 5,0 km/h (1 Bft)
04/03/2007 17:00 14,9 C 79 % 1017,5 hPa 0,0 l/m 1,0 km/h (0 Bft) E-SE 0,70 h 0,127 mm 95 W/m 11,2 C 14,9 C 2,7 km/h (1 Bft)
04/03/2007 18:00 12,5 C 88 % 1017,7 hPa 0,0 l/m 0,1 km/h (0 Bft) E-SE 0,00 h 0,051 mm 10 W/m 10,5 C 12,5 C 0,4 km/h (0 Bft)
04/03/2007 19:00 11,7 C 92 % 1018,1 hPa 0,0 l/m 0,1 km/h (0 Bft) E-SE 0,00 h 0,000 mm 0 W/m 10,5 C 11,7 C 0,6 km/h (0 Bft)
04/03/2007 20:00 11,2 C 94 % 1018,4 hPa 0,0 l/m 0,2 km/h (0 Bft) E 0,00 h 0,000 mm 0 W/m 10,3 C 11,2 C 0,5 km/h (0 Bft)
04/03/2007 21:00 11,8 C 95 % 1018,9 hPa 0,0 l/m 0,8 km/h (0 Bft) N-NE 0,00 h 0,000 mm 0 W/m 11,1 C 11,8 C 1,7 km/h (1 Bft)
04/03/2007 22:00 11,9 C 95 % 1019,2 hPa 0,0 l/m 0,2 km/h (0 Bft) N-NE 0,00 h 0,000 mm 0 W/m 11,1 C 11,9 C 0,6 km/h (0 Bft)
04/03/2007 23:00 11,7 C 95 % 1019,2 hPa 0,0 l/m 3,1 km/h (1 Bft) NO 0,00 h 0,000 mm 0 W/m 10,9 C 11,7 C 5,0 km/h (1 Bft)
Min-Date _ 27/02/07 02/03/07 02/03/07 - 26/02/07 - - - - 27/02/07 26/02/07 26/02/07
_ Min-Heure 06:55 14:13 07:15 - 04:05 - - - - 06:55 00:16 04:13
Minimum _ 7,8 C 19 % 1002,5 hPa - 0,0 km/h (0 Bft) - - - - -6,0 C 5,6 C 0,0 km/h (0 Bft)
Max-Date _ 02/03/07 04/03/07 04/03/07 26/02/07 01/03/07 - 26/02/07 01/03/07 01/03/07 04/03/07 02/03/07 01/03/07
_ Max-Heure 14:26 08:34 23:00 00:00 17:58 - 07:24 19:00 11:12 15:04 14:26 18:00
Maximum _ 24,9 C 96 % 1019,4 hPa 0,0 l/m 48,3 km/h
S-SO (6 Bft)
- 0,02 h 6,299 mm 775 W/m 12,5 C 24,9 C 64,4 km/h
SO (8 Bft)
Moyenne _ 14,4 C 58 % 1009,1 hPa #0,0 l/m 12,7 km/h (3 Bft) O-SO #51:29 h #35,093 mm 280 W/m 5,4 C 14,4 C 17,3 km/h (3 Bft)
Roquefort les pins